Time;durP1;ratioP1;P1;durP2;ratioP2;P2;SDS_P1;SDS_P2;PMS_P1;PMS_P2;Temp;Humidity;BMP_temperature;BMP_pressure;BME280_temperature;BME280_humidity;BME280_pressure;Samples;Min_cycle;Max_cycle;Signal;HPM_P1;HPM_P2
2022/09/26 00:00:09;;;;;;;33.83;14.33;;;;;;;17.28;93.10;151995.17;1786519;78;33531;-61
2022/09/26 00:02:39;;;;;;;31.68;13.05;;;;;;;17.27;93.53;151992.56;1782519;79;20997;-60
2022/09/26 00:05:10;;;;;;;24.05;10.45;;;;;;;17.26;93.98;151989.97;1777785;80;21091;-60
2022/09/26 00:07:38;;;;;;;21.23;9.68;;;;;;;17.25;94.40;151987.36;1781878;80;21042;-60
2022/09/26 00:10:07;;;;;;;17.52;7.90;;;;;;;17.23;94.62;151982.16;1778076;80;21025;-60
2022/09/26 00:12:34;;;;;;;17.67;7.72;;;;;;;17.24;94.82;151984.75;1778794;79;21465;-61
2022/09/26 00:15:01;;;;;;;17.90;7.17;;;;;;;17.23;94.93;151982.16;1768568;79;21093;-63
2022/09/26 00:17:29;;;;;;;13.72;7.08;;;;;;;17.22;95.28;151980.81;1780274;79;21050;-61
2022/09/26 00:19:56;;;;;;;13.13;6.72;;;;;;;17.20;95.63;151974.33;1755024;80;21938;-58
2022/09/26 00:22:24;;;;;;;12.15;6.08;;;;;;;17.17;95.83;151969.13;1775591;80;21381;-60
2022/09/26 00:24:52;;;;;;;11.48;5.97;;;;;;;17.15;96.02;151962.59;1772212;80;21336;-59
2022/09/26 00:27:19;;;;;;;11.68;6.53;;;;;;;17.14;96.22;151959.98;1777518;80;21125;-65
2022/09/26 00:29:47;;;;;;;12.93;5.53;;;;;;;17.13;96.49;151957.38;1772491;80;21014;-65
2022/09/26 00:32:14;;;;;;;8.53;5.37;;;;;;;17.12;96.71;151956.05;1772106;80;21228;-60
2022/09/26 00:34:41;;;;;;;13.48;5.60;;;;;;;17.12;96.93;151956.05;1779191;80;21093;-60
2022/09/26 00:37:07;;;;;;;16.97;5.03;;;;;;;17.11;97.03;151953.45;1778188;80;22335;-60
2022/09/26 00:39:34;;;;;;;7.15;4.92;;;;;;;17.12;97.21;151956.05;1778300;80;21035;-60
2022/09/26 00:42:01;;;;;;;14.55;5.17;;;;;;;17.13;97.23;151958.70;1778794;80;21144;-60
2022/09/26 00:44:44;;;;;;;5.58;4.28;;;;;;;17.15;97.21;151963.92;1772498;80;22008;-60
2022/09/26 00:47:32;;;;;;;7.80;4.30;;;;;;;17.20;97.09;151974.33;1777038;80;21086;-60
2022/09/26 00:50:04;;;;;;;7.30;3.77;;;;;;;17.23;96.92;151982.16;1771845;80;21082;-60
2022/09/26 00:52:38;;;;;;;7.55;5.20;;;;;;;17.26;96.73;151991.30;1772860;80;21025;-61
2022/09/26 00:55:06;;;;;;;11.30;4.30;;;;;;;17.29;96.48;151997.78;1773646;80;21091;-60
2022/09/26 00:57:45;;;;;;;12.30;4.00;;;;;;;17.31;96.28;152004.31;1778583;80;21231;-60
2022/09/26 01:00:13;;;;;;;8.78;4.72;;;;;;;17.35;96.07;152012.14;1783641;80;21512;-60
2022/09/26 01:02:42;;;;;;;8.28;3.60;;;;;;;17.36;95.85;152016.06;1779509;80;21114;-59
2022/09/26 01:05:10;;;;;;;6.87;3.33;;;;;;;17.39;95.61;152023.89;1780036;79;20967;-60
2022/09/26 01:07:37;;;;;;;9.13;3.60;;;;;;;17.42;95.42;152030.37;1780904;80;21491;-60
2022/09/26 01:10:09;;;;;;;9.73;4.45;;;;;;;17.45;95.21;152039.52;1783796;79;21511;-60
2022/09/26 01:12:37;;;;;;;6.37;3.85;;;;;;;17.46;95.01;152042.12;1774166;79;21062;-60
2022/09/26 01:15:07;;;;;;;8.35;3.52;;;;;;;17.49;94.78;152047.33;1779998;79;21646;-60
2022/09/26 01:17:40;;;;;;;11.30;4.25;;;;;;;17.52;94.65;152055.16;1777169;80;20975;-60
2022/09/26 01:20:38;;;;;;;5.47;3.98;;;;;;;17.53;94.44;152059.08;1748444;80;21091;-60
2022/09/26 01:23:29;;;;;;;6.15;3.65;;;;;;;17.54;94.32;152060.36;1760959;80;21280;-60
2022/09/26 01:26:30;;;;;;;8.95;3.60;;;;;;;17.57;94.27;152068.19;1778548;80;21030;-60
2022/09/26 01:29:37;;;;;;;7.85;3.65;;;;;;;17.57;94.32;152069.50;1779051;80;21067;-59
2022/09/26 01:35:07;;;;;;;10.90;3.62;;;;;;;17.57;94.90;152069.50;1770263;79;21074;-59
2022/09/26 01:38:13;;;;;;;9.88;3.87;;;;;;;17.57;95.32;152069.50;1775071;80;21240;-61
2022/09/26 01:41:04;;;;;;;5.65;3.47;;;;;;;17.60;95.63;152076.05;1778248;79;21531;-60
2022/09/26 01:43:43;;;;;;;10.45;3.83;;;;;;;17.61;95.83;152078.66;1772323;79;21098;-59
2022/09/26 01:46:52;;;;;;;8.15;3.83;;;;;;;17.62;95.82;152081.25;1747188;79;21055;-61
2022/09/26 01:49:34;;;;;;;10.93;4.37;;;;;;;17.63;95.70;152083.86;1773081;79;20998;-61
2022/09/26 01:52:15;;;;;;;10.93;3.45;;;;;;;17.65;95.16;152089.06;1775940;80;21354;-60
2022/09/26 01:54:53;;;;;;;5.22;3.35;;;;;;;17.67;94.67;152094.28;1774969;80;21089;-60
2022/09/26 01:57:26;;;;;;;7.10;3.72;;;;;;;17.69;94.08;152098.22;1774674;80;21026;-60
2022/09/26 01:59:57;;;;;;;8.63;3.85;;;;;;;17.69;93.55;152099.50;1774064;80;21035;-60
2022/09/26 02:02:26;;;;;;;12.15;4.15;;;;;;;17.72;93.08;152107.31;1777005;80;21476;-60
2022/09/26 02:04:56;;;;;;;8.55;3.30;;;;;;;17.74;92.71;152112.53;1778969;79;21214;-59
2022/09/26 02:07:40;;;;;;;10.68;3.42;;;;;;;17.78;92.59;152120.34;1788482;79;22116;-60
2022/09/26 02:10:20;;;;;;;9.73;3.42;;;;;;;17.80;92.54;152126.89;1792833;79;21054;-60
2022/09/26 02:12:53;;;;;;;9.88;3.30;;;;;;;17.81;92.58;152128.22;1794129;79;21089;-60
2022/09/26 02:15:20;;;;;;;10.72;3.42;;;;;;;17.82;92.86;152130.81;1797611;78;21101;-60
2022/09/26 02:17:55;;;;;;;6.03;3.45;;;;;;;17.82;93.07;152130.81;1800838;79;21536;-60
2022/09/26 02:20:30;;;;;;;9.68;3.67;;;;;;;17.83;93.42;152133.42;1796956;79;20999;-61
2022/09/26 02:22:58;;;;;;;6.00;3.35;;;;;;;17.84;93.72;152136.03;1803044;79;21040;-65
2022/09/26 02:25:27;;;;;;;11.43;4.20;;;;;;;17.83;93.85;152134.70;1803296;79;21495;-65
2022/09/26 02:27:53;;;;;;;9.58;3.65;;;;;;;17.82;93.90;152132.09;1755749;79;21019;-64
2022/09/26 02:30:21;;;;;;;9.50;3.67;;;;;;;17.83;93.98;152133.42;1787117;79;21129;-64
2022/09/26 02:32:48;;;;;;;6.15;3.42;;;;;;;17.83;94.25;152133.42;1793074;79;21507;-63
2022/09/26 02:38:01;;;;;;;12.75;3.72;;;;;;;17.84;94.39;152136.03;1764654;80;21046;-64
2022/09/26 02:40:50;;;;;;;12.40;3.42;;;;;;;17.84;94.31;152136.03;1782415;79;20986;-64
2022/09/26 02:44:02;;;;;;;10.18;3.80;;;;;;;17.84;94.10;152136.03;1754329;80;21539;-64
2022/09/26 02:46:48;;;;;;;10.13;3.70;;;;;;;17.84;94.02;152137.31;1784914;79;20946;-65
2022/09/26 02:49:32;;;;;;;7.08;3.50;;;;;;;17.85;93.88;152138.64;1795113;79;21564;-63
2022/09/26 02:52:14;;;;;;;11.23;3.57;;;;;;;17.86;93.78;152142.52;1797572;79;20966;-64
2022/09/26 02:55:05;;;;;;;13.20;4.22;;;;;;;17.88;93.67;152146.45;1785417;79;20997;-64
2022/09/26 02:57:55;;;;;;;9.13;3.65;;;;;;;17.89;93.70;152149.06;1795704;79;21255;-64
2022/09/26 03:00:24;;;;;;;10.43;3.85;;;;;;;17.89;93.78;152149.06;1764097;79;21487;-65
2022/09/26 03:03:02;;;;;;;11.40;4.25;;;;;;;17.89;93.71;152149.06;1796283;79;21062;-63
2022/09/26 03:05:31;;;;;;;15.08;3.27;;;;;;;17.89;93.54;152149.06;1799305;79;21030;-66
2022/09/26 03:08:13;;;;;;;10.72;3.40;;;;;;;17.92;93.28;152156.88;1791388;78;21062;-63
2022/09/26 03:10:40;;;;;;;7.75;3.52;;;;;;;17.94;93.21;152162.09;1781016;79;21226;-66
2022/09/26 03:13:11;;;;;;;8.08;4.28;;;;;;;17.94;93.17;152162.09;1729118;79;21081;-64
2022/09/26 03:15:39;;;;;;;10.40;3.70;;;;;;;17.94;93.09;152162.09;1792821;79;20987;-65
2022/09/26 03:18:09;;;;;;;7.90;3.50;;;;;;;17.97;92.92;152168.63;1784233;79;21424;-64
2022/09/26 03:20:36;;;;;;;8.35;3.62;;;;;;;17.96;92.82;152167.31;1781482;79;21081;-65
2022/09/26 03:23:03;;;;;;;8.40;3.90;;;;;;;17.96;92.60;152167.31;1794839;79;21074;-64
2022/09/26 03:25:31;;;;;;;10.08;4.25;;;;;;;17.96;92.33;152166.03;1796211;79;20919;-65
2022/09/26 03:28:01;;;;;;;10.20;3.45;;;;;;;17.95;92.07;152164.70;1784798;79;21073;-65
2022/09/26 03:30:31;;;;;;;8.98;3.83;;;;;;;17.96;91.60;152167.31;1793992;79;21030;-65
2022/09/26 03:33:05;;;;;;;10.45;3.62;;;;;;;17.96;91.19;152166.03;1775507;78;21035;-65
2022/09/26 03:35:32;;;;;;;11.48;3.60;;;;;;;17.98;91.01;152171.23;1795046;79;21206;-66
2022/09/26 03:37:59;;;;;;;10.23;3.83;;;;;;;17.98;90.89;152171.23;1747614;79;21049;-65
2022/09/26 03:40:28;;;;;;;6.83;3.50;;;;;;;17.99;91.02;152173.84;1777376;79;21195;-60
2022/09/26 03:42:59;;;;;;;8.33;3.90;;;;;;;17.99;91.22;152175.13;1774312;79;21014;-60
2022/09/26 03:45:27;;;;;;;6.85;3.62;;;;;;;18.01;91.37;152180.39;1784231;79;21038;-59
2022/09/26 03:48:02;;;;;;;7.28;3.47;;;;;;;18.00;91.49;152177.73;1781898;79;21193;-61
2022/09/26 03:50:32;;;;;;;10.68;3.55;;;;;;;18.02;91.58;152183.03;1783412;79;20999;-61
2022/09/26 03:53:00;;;;;;;8.95;3.60;;;;;;;18.01;91.68;152179.06;1777334;79;21029;-61
2022/09/26 03:55:27;;;;;;;7.12;3.35;;;;;;;18.01;91.91;152180.39;1784869;79;21021;-61
2022/09/26 03:57:54;;;;;;;8.58;3.33;;;;;;;18.01;92.17;152180.39;1781738;79;21025;-61
2022/09/26 04:00:26;;;;;;;7.70;3.58;;;;;;;18.01;92.40;152180.39;1779796;79;22844;-60
2022/09/26 04:02:53;;;;;;;8.68;4.03;;;;;;;18.01;92.78;152180.39;1779690;79;21097;-65
2022/09/26 04:05:21;;;;;;;4.95;3.20;;;;;;;18.01;93.05;152180.39;1777737;79;21085;-65
2022/09/26 04:07:48;;;;;;;7.28;3.70;;;;;;;18.01;93.33;152180.39;1792562;78;21042;-65
2022/09/26 04:10:15;;;;;;;8.90;3.60;;;;;;;18.01;93.56;152180.39;1782909;79;21058;-64
2022/09/26 04:12:43;;;;;;;7.65;3.75;;;;;;;18.01;93.81;152179.06;1788713;78;21226;-65
2022/09/26 04:15:11;;;;;;;5.83;3.27;;;;;;;18.01;93.95;152179.06;1786574;79;21539;-63
2022/09/26 04:17:40;;;;;;;8.53;3.35;;;;;;;18.01;94.12;152180.39;1754751;79;21050;-65
2022/09/26 04:20:08;;;;;;;6.22;3.20;;;;;;;18.02;94.34;152181.72;1789909;79;21053;-64
2022/09/26 04:22:35;;;;;;;8.60;3.65;;;;;;;18.02;94.61;152183.03;1782752;79;21093;-65
2022/09/26 04:25:02;;;;;;;9.30;3.20;;;;;;;18.01;94.85;152180.39;1783746;79;21173;-63
2022/09/26 04:27:30;;;;;;;6.28;3.00;;;;;;;18.02;95.18;152183.03;1751196;79;21070;-66
2022/09/26 04:29:56;;;;;;;10.13;3.70;;;;;;;18.02;95.60;152183.03;1788784;79;21108;-65
2022/09/26 04:32:28;;;;;;;8.70;3.37;;;;;;;18.03;96.10;152185.66;1789643;78;20974;-65
2022/09/26 04:35:13;;;;;;;6.72;3.47;;;;;;;18.03;96.56;152184.31;1790643;78;21023;-65
2022/09/26 04:37:41;;;;;;;8.00;3.65;;;;;;;18.01;97.24;152180.39;1787340;79;21168;-65
2022/09/26 04:40:10;;;;;;;10.08;3.75;;;;;;;18.01;97.76;152180.39;1785053;79;21465;-64
2022/09/26 04:42:40;;;;;;;8.80;3.67;;;;;;;18.01;97.99;152180.39;1785944;79;21073;-66
2022/09/26 04:45:09;;;;;;;10.43;3.70;;;;;;;18.01;98.24;152180.39;1784585;79;21081;-66
2022/09/26 04:47:36;;;;;;;7.15;4.03;;;;;;;18.03;98.50;152185.66;1786115;79;20987;-65
2022/09/26 04:50:21;;;;;;;9.33;3.77;;;;;;;18.06;98.55;152190.86;1787345;79;22141;-64
2022/09/26 04:52:49;;;;;;;11.40;3.50;;;;;;;18.06;98.62;152192.14;1774698;79;20970;-65
2022/09/26 04:55:16;;;;;;;12.45;5.20;;;;;;;18.07;98.57;152193.47;1786436;79;21109;-64
2022/09/26 04:57:44;;;;;;;9.60;3.50;;;;;;;18.08;98.39;152196.08;1787020;79;21105;-64
2022/09/26 05:00:13;;;;;;;9.13;3.72;;;;;;;18.11;98.22;152203.89;1789181;79;20994;-64
2022/09/26 05:02:41;;;;;;;9.33;3.72;;;;;;;18.13;98.12;152209.11;1783954;78;21856;-66
2022/09/26 05:05:08;;;;;;;8.75;3.30;;;;;;;18.16;98.00;152216.92;1787157;79;21082;-65
2022/09/26 05:07:41;;;;;;;9.40;3.50;;;;;;;18.17;97.94;152219.53;1780010;79;20935;-64
2022/09/26 05:10:11;;;;;;;9.65;3.00;;;;;;;18.22;97.87;152231.28;1753723;81;21040;-64
2022/09/26 05:12:41;;;;;;;11.85;3.37;;;;;;;18.27;97.87;152244.33;1770931;80;21500;-64
2022/09/26 05:15:09;;;;;;;8.25;3.40;;;;;;;18.33;97.91;152259.97;1775055;80;21878;-64
2022/09/26 05:17:37;;;;;;;7.92;3.15;;;;;;;18.37;98.00;152269.11;1775707;80;20939;-65
2022/09/26 05:20:09;;;;;;;10.85;3.87;;;;;;;18.41;98.02;152280.87;1776403;80;20935;-64
2022/09/26 05:22:40;;;;;;;7.78;3.52;;;;;;;18.44;97.97;152287.36;1779742;79;21070;-65
2022/09/26 05:27:54;;;;;;;8.48;3.30;;;;;;;18.49;97.72;152299.12;1771189;79;21563;-65
2022/09/26 05:30:20;;;;;;;10.63;3.47;;;;;;;18.53;97.29;152310.88;1783288;79;21437;-64
2022/09/26 05:32:48;;;;;;;7.85;3.42;;;;;;;18.64;96.82;152336.95;1779387;80;21027;-65
2022/09/26 05:35:16;;;;;;;11.33;3.52;;;;;;;18.78;96.10;152372.17;1777258;80;21093;-65
2022/09/26 05:37:43;;;;;;;5.08;3.22;;;;;;;18.88;95.37;152398.31;1774479;80;21014;-66
2022/09/26 05:43:01;;;;;;;9.58;3.47;;;;;;;18.98;94.83;152424.44;1781056;79;21059;-65
2022/09/26 05:45:30;;;;;;;11.08;3.52;;;;;;;19.03;94.61;152436.20;1777194;80;21087;-64
2022/09/26 05:47:57;;;;;;;9.63;3.80;;;;;;;19.02;94.69;152434.92;1773493;80;21117;-64
2022/09/26 05:50:24;;;;;;;7.78;3.75;;;;;;;19.05;94.74;152441.41;1780236;80;21030;-65
2022/09/26 05:52:50;;;;;;;7.70;3.52;;;;;;;19.07;94.84;152446.63;1777519;79;21182;-65
2022/09/26 05:55:19;;;;;;;11.33;3.55;;;;;;;19.09;94.54;152450.56;1772307;79;21092;-65
2022/09/26 05:58:06;;;;;;;9.75;3.72;;;;;;;19.10;94.36;152453.17;1779290;79;21076;-65
2022/09/26 06:00:37;;;;;;;8.70;3.62;;;;;;;19.11;94.39;152457.06;1765896;79;21116;-63
2022/09/26 06:03:03;;;;;;;8.10;3.60;;;;;;;19.12;94.41;152458.39;1776890;80;21082;-67
2022/09/26 06:05:38;;;;;;;8.58;3.60;;;;;;;19.14;94.37;152464.94;1772471;80;21240;-64
2022/09/26 06:08:11;;;;;;;15.55;3.75;;;;;;;19.16;94.42;152470.16;1766771;80;21108;-66
2022/09/26 06:10:39;;;;;;;11.15;3.62;;;;;;;19.17;94.57;152471.44;1775982;80;21085;-64
2022/09/26 06:13:06;;;;;;;9.40;4.08;;;;;;;19.18;94.88;152474.03;1773773;79;21097;-65
2022/09/26 06:15:42;;;;;;;10.03;4.00;;;;;;;19.21;95.10;152480.59;1772952;80;21051;-65
2022/09/26 06:18:09;;;;;;;6.80;3.75;;;;;;;19.20;95.06;152477.97;1767681;80;21807;-65
2022/09/26 06:20:35;;;;;;;11.60;4.12;;;;;;;19.22;94.99;152483.19;1771738;80;21015;-64
2022/09/26 06:23:03;;;;;;;12.33;3.87;;;;;;;19.23;94.97;152485.80;1772182;80;21046;-65
2022/09/26 06:25:31;;;;;;;11.83;4.03;;;;;;;19.29;95.11;152501.45;1773234;79;21438;-65
2022/09/26 06:28:01;;;;;;;8.73;4.08;;;;;;;19.36;95.21;152519.77;1776310;80;21157;-65
2022/09/26 06:30:29;;;;;;;7.67;3.83;;;;;;;19.47;95.05;152548.47;1770946;80;21907;-65
2022/09/26 06:32:58;;;;;;;11.50;4.25;;;;;;;19.55;94.55;152566.72;1762922;79;21056;-65
2022/09/26 06:35:39;;;;;;;12.47;4.30;;;;;;;19.61;94.02;152582.42;1770211;80;21076;-64
2022/09/26 06:38:11;;;;;;;11.50;3.65;;;;;;;19.67;93.86;152598.08;1769301;79;21046;-65
2022/09/26 06:40:38;;;;;;;11.97;4.45;;;;;;;19.70;93.74;152605.91;1771955;80;21033;-65
2022/09/26 06:43:05;;;;;;;13.10;5.15;;;;;;;19.73;93.60;152612.45;1774343;79;22105;-65
2022/09/26 06:45:50;;;;;;;13.32;5.15;;;;;;;19.69;93.63;152602.02;1774712;80;21024;-65
2022/09/26 06:48:24;;;;;;;12.82;5.05;;;;;;;19.66;93.60;152595.47;1769435;80;21015;-65
2022/09/26 06:51:08;;;;;;;13.05;4.87;;;;;;;19.66;93.39;152595.47;1768462;80;22104;-64
2022/09/26 06:53:36;;;;;;;14.53;4.83;;;;;;;19.67;93.13;152596.75;1776627;79;21089;-65
2022/09/26 06:56:03;;;;;;;9.93;4.20;;;;;;;19.65;92.92;152591.53;1774808;79;21633;-63
2022/09/26 06:58:30;;;;;;;11.50;4.35;;;;;;;19.65;93.05;152592.86;1769684;80;21054;-66
2022/09/26 07:01:00;;;;;;;8.28;4.30;;;;;;;19.66;93.17;152594.14;1766115;80;21064;-65
2022/09/26 07:03:28;;;;;;;11.50;3.95;;;;;;;19.67;93.29;152598.08;1759491;80;21064;-66
2022/09/26 07:05:57;;;;;;;11.63;3.87;;;;;;;19.71;93.39;152607.23;1777934;80;21078;-65
2022/09/26 07:08:25;;;;;;;6.78;3.40;;;;;;;19.75;93.33;152618.95;1775256;80;22179;-62
2022/09/26 07:10:54;;;;;;;11.90;3.62;;;;;;;19.81;93.21;152632.06;1776131;79;21148;-61
2022/09/26 07:13:23;;;;;;;15.18;5.00;;;;;;;19.81;92.72;152633.33;1674817;83;21091;-61
2022/09/26 07:15:50;;;;;;;12.93;3.80;;;;;;;19.89;92.78;152652.92;1776843;79;21054;-61
2022/09/26 07:18:18;;;;;;;10.43;3.98;;;;;;;19.98;92.14;152676.47;1768490;79;21107;-61
2022/09/26 07:20:56;;;;;;;9.10;3.50;;;;;;;20.02;91.74;152685.62;1772492;79;21128;-61
2022/09/26 07:23:43;;;;;;;9.90;3.90;;;;;;;20.07;91.57;152698.67;1771317;80;21037;-60
2022/09/26 07:26:12;;;;;;;10.08;3.52;;;;;;;20.16;91.34;152720.88;1773655;80;21144;-60
2022/09/26 07:28:39;;;;;;;12.18;4.15;;;;;;;20.25;90.96;152744.42;1768474;80;21356;-66
2022/09/26 07:31:06;;;;;;;7.83;3.72;;;;;;;20.36;90.52;152770.53;1776841;80;21090;-65
2022/09/26 07:33:35;;;;;;;10.68;3.70;;;;;;;20.46;89.96;152796.67;1718466;80;21257;-65
2022/09/26 07:36:05;;;;;;;11.75;3.50;;;;;;;20.52;89.49;152812.34;1776911;80;21077;-66
2022/09/26 07:38:32;;;;;;;5.75;3.55;;;;;;;20.56;89.23;152822.78;1775705;79;21030;-66
2022/09/26 07:40:59;;;;;;;12.45;3.67;;;;;;;20.60;89.17;152833.22;1754629;80;21008;-65
2022/09/26 07:43:26;;;;;;;9.53;3.98;;;;;;;20.65;88.99;152843.67;1775035;78;21073;-66
2022/09/26 07:51:48;;;;;;;12.90;4.50;;;;;;;20.86;88.25;152898.59;1756963;80;21054;-61
2022/09/26 07:54:17;;;;;;;9.20;4.12;;;;;;;21.02;87.41;152937.81;1778436;79;21038;-67
2022/09/26 07:56:49;;;;;;;13.83;3.60;;;;;;;21.09;86.22;152956.09;1732912;80;21030;-61
2022/09/26 07:59:26;;;;;;;8.50;3.72;;;;;;;21.10;86.23;152958.70;1736511;80;21118;-61
2022/09/26 08:04:42;;;;;;;11.65;4.00;;;;;;;21.18;85.93;152979.66;1848546;76;22744;-66
2022/09/26 08:07:11;;;;;;;7.42;3.67;;;;;;;21.14;85.99;152969.20;1796350;78;20921;-66
2022/09/26 08:09:40;;;;;;;7.33;3.90;;;;;;;21.13;85.99;152966.59;1796438;79;21118;-65
2022/09/26 08:12:08;;;;;;;9.00;3.37;;;;;;;21.08;86.19;152952.20;1747429;78;21190;-65
2022/09/26 08:14:38;;;;;;;11.43;3.50;;;;;;;21.00;86.59;152933.92;1803579;77;21052;-66
2022/09/26 08:17:14;;;;;;;8.95;3.80;;;;;;;21.05;86.92;152945.66;1798522;78;20957;-61
2022/09/26 08:19:41;;;;;;;9.85;3.70;;;;;;;21.12;86.76;152963.98;1791222;78;21012;-61
2022/09/26 08:22:08;;;;;;;12.35;3.90;;;;;;;21.17;86.60;152975.70;1800826;79;21944;-65
2022/09/26 08:24:35;;;;;;;10.75;3.72;;;;;;;21.24;86.31;152994.05;1791943;79;20957;-65
2022/09/26 08:27:21;;;;;;;8.40;3.60;;;;;;;21.29;86.15;153007.09;1798528;78;21024;-65
2022/09/26 08:29:49;;;;;;;12.15;4.03;;;;;;;21.37;86.02;153026.72;1795992;78;21016;-65
2022/09/26 08:32:19;;;;;;;8.23;3.47;;;;;;;21.42;85.24;153039.78;1793601;79;21060;-66
2022/09/26 08:34:48;;;;;;;8.18;3.60;;;;;;;21.47;84.99;153052.83;1805524;78;21245;-67
2022/09/26 08:37:34;;;;;;;7.78;4.05;;;;;;;21.53;84.89;153067.22;1799327;78;21048;-61
2022/09/26 08:40:06;;;;;;;5.55;3.47;;;;;;;21.53;84.52;153065.91;1775420;79;22061;-61
2022/09/26 08:43:05;;;;;;;7.35;3.80;;;;;;;21.51;84.76;153062.00;1798916;78;22070;-62
2022/09/26 08:48:53;;;;;;;10.58;3.92;;;;;;;21.58;85.62;153079.00;1798307;78;21143;-67
2022/09/26 08:51:29;;;;;;;6.80;3.70;;;;;;;21.65;84.84;153097.34;1791824;78;20969;-61
2022/09/26 08:54:29;;;;;;;10.95;3.92;;;;;;;21.68;84.62;153105.19;1795026;77;21489;-62
2022/09/26 08:56:59;;;;;;;7.10;3.47;;;;;;;21.71;84.60;153111.73;1794566;79;21008;-61
2022/09/26 08:59:40;;;;;;;9.35;3.77;;;;;;;21.72;84.77;153115.63;1790197;78;21391;-62
2022/09/26 09:02:19;;;;;;;10.88;3.58;;;;;;;21.71;84.64;153111.73;1799043;79;21130;-61
2022/09/26 09:05:23;;;;;;;12.60;3.77;;;;;;;21.67;84.67;153102.56;1791460;78;21729;-65
2022/09/26 09:07:53;;;;;;;12.58;3.70;;;;;;;21.61;85.21;153088.13;1783376;79;20972;-67
2022/09/26 09:10:42;;;;;;;11.93;4.33;;;;;;;21.64;85.64;153094.69;1801436;78;20929;-67
2022/09/26 09:14:00;;;;;;;9.55;3.77;;;;;;;21.67;85.43;153102.56;1795232;78;21075;-65
2022/09/26 09:17:05;;;;;;;10.25;3.90;;;;;;;21.69;85.28;153107.80;1797091;79;22500;-66
2022/09/26 09:20:21;;;;;;;13.48;3.98;;;;;;;21.68;85.34;153105.19;1765336;80;21112;-66
2022/09/26 09:23:35;;;;;;;7.83;3.35;;;;;;;21.71;85.80;153113.02;1794903;78;20937;-65
2022/09/26 09:26:10;;;;;;;10.13;3.90;;;;;;;21.74;85.69;153120.86;1782684;79;21712;-65
2022/09/26 09:28:55;;;;;;;8.83;3.40;;;;;;;21.76;85.32;153124.80;1782352;79;21016;-66
2022/09/26 09:31:25;;;;;;;15.23;4.37;;;;;;;21.77;85.46;153127.41;1800090;78;21585;-61
2022/09/26 09:34:03;;;;;;;11.00;3.67;;;;;;;21.77;85.07;153126.08;1801047;77;21348;-62
2022/09/26 09:36:46;;;;;;;9.93;3.75;;;;;;;21.75;85.34;153122.19;1789015;78;21493;-62
2022/09/26 09:39:26;;;;;;;11.97;3.80;;;;;;;21.75;85.23;153123.47;1770167;79;21068;-61
2022/09/26 09:42:37;;;;;;;6.30;3.62;;;;;;;21.74;85.15;153120.86;1780026;79;21071;-62
2022/09/26 09:45:31;;;;;;;6.80;3.67;;;;;;;21.68;84.98;153105.19;1771237;78;21812;-61
2022/09/26 09:47:57;;;;;;;7.05;3.80;;;;;;;21.61;85.13;153086.84;1765881;79;21004;-61
2022/09/26 09:50:48;;;;;;;10.58;4.67;;;;;;;21.58;85.19;153079.00;1799082;77;21078;-61
2022/09/26 09:53:46;;;;;;;10.03;4.10;;;;;;;21.55;85.33;153072.45;1794856;79;21119;-60
2022/09/26 09:56:57;;;;;;;9.95;4.45;;;;;;;21.52;85.54;153063.28;1773173;79;21162;-61
2022/09/26 10:00:04;;;;;;;13.80;5.10;;;;;;;21.47;85.74;153052.83;1788364;78;20995;-61
2022/09/26 10:02:59;;;;;;;12.58;4.58;;;;;;;21.42;86.40;153039.78;1793746;78;21083;-61
2022/09/26 10:05:38;;;;;;;10.68;4.28;;;;;;;21.35;86.83;153020.16;1717692;80;21037;-61
2022/09/26 10:08:12;;;;;;;11.15;4.53;;;;;;;21.31;87.44;153012.33;1788655;79;21008;-66
2022/09/26 10:11:24;;;;;;;12.07;4.45;;;;;;;21.32;87.89;153013.61;1783766;79;21478;-66
2022/09/26 10:14:02;;;;;;;11.33;5.00;;;;;;;21.33;87.79;153016.22;1777096;79;21800;-61
2022/09/26 10:16:32;;;;;;;10.60;4.60;;;;;;;21.33;87.70;153016.22;1775096;79;21088;-61
2022/09/26 10:19:06;;;;;;;7.90;4.55;;;;;;;21.31;87.49;153011.00;1783575;79;21056;-61
2022/09/26 10:21:42;;;;;;;12.82;5.33;;;;;;;21.30;87.69;153008.38;1782561;78;21467;-65
2022/09/26 10:24:37;;;;;;;10.78;5.10;;;;;;;21.28;87.72;153003.16;1790198;79;21038;-66
2022/09/26 10:27:25;;;;;;;10.90;4.75;;;;;;;21.25;87.99;152995.33;1765449;79;21453;-66
2022/09/26 10:29:57;;;;;;;12.80;4.87;;;;;;;21.22;88.53;152987.48;1809133;78;20952;-66
2022/09/26 10:32:27;;;;;;;11.35;5.12;;;;;;;21.23;88.71;152991.42;1802144;78;21033;-65
2022/09/26 10:35:19;;;;;;;9.15;4.33;;;;;;;21.24;88.56;152992.72;1803597;77;20867;-66
2022/09/26 10:38:01;;;;;;;9.88;5.12;;;;;;;21.25;88.63;152995.33;1785033;78;21330;-67
2022/09/26 10:40:47;;;;;;;11.85;4.67;;;;;;;21.24;88.63;152992.72;1790921;78;21846;-67
2022/09/26 10:43:29;;;;;;;14.90;5.42;;;;;;;21.20;88.98;152982.27;1797238;77;21068;-66
2022/09/26 10:46:17;;;;;;;13.80;5.10;;;;;;;21.16;89.65;152973.09;1798840;77;20968;-66
2022/09/26 10:49:00;;;;;;;11.43;4.90;;;;;;;21.14;89.94;152969.20;1800426;77;21091;-65
2022/09/26 10:51:43;;;;;;;10.55;5.17;;;;;;;21.15;89.85;152970.48;1797607;78;21064;-66
2022/09/26 10:54:21;;;;;;;13.08;4.78;;;;;;;21.16;89.85;152974.42;1796443;79;21909;-61
2022/09/26 10:56:53;;;;;;;11.00;4.67;;;;;;;21.15;89.93;152971.81;1800265;77;21100;-62
2022/09/26 10:59:24;;;;;;;14.50;5.42;;;;;;;21.14;90.22;152969.20;1792398;78;21076;-60
2022/09/26 11:01:54;;;;;;;14.07;4.92;;;;;;;21.12;90.12;152963.98;1805641;78;20996;-66
2022/09/26 11:07:39;;;;;;;11.20;5.30;;;;;;;20.99;90.76;152929.98;1779853;78;21140;-67
2022/09/26 11:10:31;;;;;;;15.15;5.62;;;;;;;20.92;91.38;152912.98;1803077;77;21107;-66
2022/09/26 11:13:17;;;;;;;17.32;5.72;;;;;;;20.88;92.07;152902.53;1782043;79;21015;-67
2022/09/26 11:16:12;;;;;;;12.75;4.78;;;;;;;20.85;92.71;152894.70;1796080;78;21003;-66
2022/09/26 11:18:58;;;;;;;10.20;5.33;;;;;;;20.83;93.15;152890.77;1778296;79;20983;-67
2022/09/26 11:22:07;;;;;;;8.33;4.90;;;;;;;20.83;93.47;152889.48;1795106;79;21279;-65
2022/09/26 11:24:52;;;;;;;10.55;5.15;;;;;;;20.83;93.60;152890.77;1792427;79;21651;-67
2022/09/26 11:27:45;;;;;;;13.18;5.20;;;;;;;20.84;93.99;152893.38;1793606;79;21465;-66
2022/09/26 11:30:20;;;;;;;9.33;5.20;;;;;;;20.89;93.99;152906.48;1788365;79;21220;-65
2022/09/26 11:32:59;;;;;;;16.00;5.65;;;;;;;20.94;93.29;152916.92;1803510;77;22095;-67
2022/09/26 11:35:52;;;;;;;14.33;6.20;;;;;;;20.94;92.77;152918.20;1796596;78;21154;-66
2022/09/26 11:38:48;;;;;;;12.98;5.50;;;;;;;20.92;92.33;152912.98;1781054;79;21094;-66
2022/09/26 11:42:01;;;;;;;14.13;5.85;;;;;;;20.89;92.07;152906.48;1800552;79;21019;-67
2022/09/26 11:44:58;;;;;;;14.28;6.12;;;;;;;20.87;91.99;152901.22;1804360;78;21055;-66
2022/09/26 11:48:05;;;;;;;11.03;5.58;;;;;;;20.85;92.18;152895.98;1799922;78;21482;-65
2022/09/26 11:50:57;;;;;;;8.95;5.70;;;;;;;20.83;92.61;152890.77;1797296;78;21701;-66
2022/09/26 11:53:50;;;;;;;11.63;5.97;;;;;;;20.84;92.95;152893.38;1787916;78;21529;-66
2022/09/26 11:56:46;;;;;;;16.12;5.40;;;;;;;20.84;93.26;152893.38;1796815;77;20955;-65
2022/09/26 11:59:40;;;;;;;18.65;6.10;;;;;;;20.83;93.18;152889.48;1788086;79;21230;-68
2022/09/26 12:02:32;;;;;;;8.80;5.50;;;;;;;20.83;93.00;152890.77;1718955;81;21107;-67
2022/09/26 12:05:36;;;;;;;11.78;5.50;;;;;;;20.81;92.97;152885.55;1745958;81;21784;-65
2022/09/26 12:08:08;;;;;;;;;;;;;;;20.79;93.30;152880.28;1783194;77;21017;-66
2022/09/26 12:10:59;;;;;;;9.68;5.97;;;;;;;20.79;93.56;152880.28;1791607;78;20419;-65
2022/09/26 12:13:56;;;;;;;15.70;5.90;;;;;;;20.78;93.49;152876.33;1787902;79;21048;-66
2022/09/26 12:16:57;;;;;;;10.13;5.60;;;;;;;20.76;93.32;152872.44;1787135;78;21088;-66
2022/09/26 12:19:54;;;;;;;13.72;5.75;;;;;;;20.70;93.57;152858.06;1791125;79;21245;-65
2022/09/26 12:22:45;;;;;;;9.48;5.92;;;;;;;20.64;94.01;152842.39;1783984;79;21061;-65
2022/09/26 12:25:35;;;;;;;10.48;6.10;;;;;;;20.60;94.63;152833.22;1790816;79;21032;-66
2022/09/26 12:28:24;;;;;;;11.25;5.67;;;;;;;20.56;94.80;152821.50;1793118;77;21048;-66
2022/09/26 12:31:03;;;;;;;11.15;6.22;;;;;;;20.54;94.72;152816.23;1795706;79;21585;-66